createdAt,value
2023-05-28T00:04:01.966Z,1006
2023-05-28T00:09:00.581Z,1006
2023-05-28T00:14:00.449Z,1006
2023-05-28T00:18:57.882Z,1005.9
2023-05-28T00:23:58.114Z,1005.9
2023-05-28T00:28:57.404Z,1005.9
2023-05-28T00:33:58.471Z,1005.9
2023-05-28T00:38:54.973Z,1005.9
2023-05-28T00:43:54.944Z,1005.8
2023-05-28T00:48:54.228Z,1005.8
2023-05-28T00:53:54.151Z,1005.9
2023-05-28T00:58:51.553Z,1005.9
2023-05-28T01:00:37.478Z,1005.9
2023-05-28T01:05:12.772Z,1005.9
2023-05-28T01:30:18.174Z,1005.8
2023-05-28T03:34:12.795Z,1005.9
2023-05-28T03:39:12.180Z,1005.9
2023-05-28T03:44:11.617Z,1005.8
2023-05-28T03:49:11.521Z,1005.8
2023-05-28T03:54:10.961Z,1005.8
2023-05-28T03:59:11.311Z,1005.7
2023-05-28T04:04:11.021Z,1005.7
2023-05-28T04:14:07.813Z,1005.8
2023-05-28T04:19:08.059Z,1005.8
2023-05-28T04:24:07.183Z,1005.9
2023-05-28T04:29:07.139Z,1005.9
2023-05-28T04:34:04.464Z,1005.9
2023-05-28T04:39:04.309Z,1006
2023-05-28T04:44:03.361Z,1006
2023-05-28T04:49:03.122Z,1006
2023-05-28T04:54:02.401Z,1006
2023-05-28T04:59:02.325Z,1006
2023-05-28T05:04:02.383Z,1006
2023-05-28T05:09:01.650Z,1006
2023-05-28T05:14:00.376Z,1005.9
2023-05-28T05:19:00.464Z,1005.9
2023-05-28T05:24:00.423Z,1005.9
2023-05-28T05:29:00.374Z,1006
2023-05-28T05:33:59.739Z,1006
2023-05-28T05:38:59.620Z,1005.9
2023-05-28T05:43:59.680Z,1005.9
2023-05-28T05:48:59.054Z,1005.9
2023-05-28T05:54:00.232Z,1005.9
2023-05-28T05:58:48.887Z,1005.9
2023-05-28T06:03:49.067Z,1005.9
2023-05-28T06:08:48.748Z,1006
2023-05-28T06:13:48.254Z,1005.9
2023-05-28T06:18:46.186Z,1005.9
2023-05-28T06:23:45.961Z,1005.8
2023-05-28T06:28:45.297Z,1005.8
2023-05-28T06:33:45.166Z,1005.8
2023-05-28T06:38:44.437Z,1005.8
2023-05-28T06:43:44.082Z,1005.8
2023-05-28T06:48:44.150Z,1005.8
2023-05-28T06:53:44.596Z,1005.9
2023-05-28T06:58:42.102Z,1005.9
2023-05-28T07:00:28.568Z,1005.9
2023-05-28T07:05:03.641Z,1005.9
2023-05-28T07:10:03.806Z,1005.8
2023-05-28T07:15:03.153Z,1005.8
2023-05-28T07:20:03.033Z,1005.8
2023-05-28T07:25:03.690Z,1005.7
2023-05-28T07:30:03.308Z,1005.7
2023-05-28T07:35:04.335Z,1005.7
2023-05-28T07:40:01.184Z,1005.6
2023-05-28T07:45:01.551Z,1005.7
2023-05-28T07:50:00.868Z,1005.7
2023-05-28T07:55:01.182Z,1006.3
2023-05-28T09:04:11.927Z,1005.4
2023-05-28T09:09:11.287Z,1004.9
2023-05-28T09:14:10.737Z,1005.3
2023-05-28T09:19:10.944Z,1005
2023-05-28T09:24:08.108Z,1005.3
2023-05-28T09:29:07.918Z,1005.4
2023-05-28T09:34:08.057Z,1005
2023-05-28T09:39:07.695Z,1005
2023-05-28T09:44:07.018Z,1004.9
2023-05-28T09:49:06.954Z,1005.3
2023-05-28T09:54:06.761Z,1005
2023-05-28T09:59:05.723Z,1004.9
2023-05-28T10:04:07.604Z,1004.8
2023-05-28T10:09:04.354Z,1004.9
2023-05-28T10:14:03.468Z,1004.8
2023-05-28T10:19:03.562Z,1004.9
2023-05-28T10:24:02.612Z,1004.8
2023-05-28T10:29:02.539Z,1004.9
2023-05-28T10:34:02.638Z,1004.8
2023-05-28T10:39:02.083Z,1004.7
2023-05-28T10:44:02.789Z,1004.7
2023-05-28T10:48:59.230Z,1004.7
2023-05-28T10:53:59.864Z,1004.7
2023-05-28T10:58:58.620Z,1004.8
2023-05-28T11:03:58.529Z,1004.8
2023-05-28T11:08:55.749Z,1004.7
2023-05-28T11:13:55.256Z,1004.6
2023-05-28T11:18:55.606Z,1004.5
2023-05-28T11:23:55.100Z,1004.4
2023-05-28T11:28:54.656Z,1004.5
2023-05-28T11:33:54.217Z,1004.6
2023-05-28T11:38:54.416Z,1004.6
2023-05-28T11:43:53.889Z,1004.6
2023-05-28T11:48:51.723Z,1004.6
2023-05-28T11:53:51.404Z,1004.6
2023-05-28T11:58:50.365Z,1004.6
2023-05-28T12:00:36.518Z,1004.6
2023-05-28T12:05:11.731Z,1004.7
2023-05-28T12:10:11.410Z,1004.4
2023-05-28T12:15:11.873Z,1004.4
2023-05-28T12:20:11.535Z,1004.3
2023-05-28T12:25:12.621Z,1004.4
2023-05-28T12:30:08.342Z,1004.3
2023-05-28T12:35:08.355Z,1004.2
2023-05-28T12:40:07.822Z,1004.3
2023-05-28T12:45:07.411Z,1004.3
2023-05-28T12:50:05.372Z,1004.2
2023-05-28T12:55:13.413Z,1004.2
2023-05-28T13:29:08.957Z,1004.3
2023-05-28T14:04:05.901Z,1003.8
2023-05-28T14:09:06.585Z,1003.9
2023-05-28T14:14:02.924Z,1003.8
2023-05-28T14:19:02.847Z,1003.8
2023-05-28T14:24:02.163Z,1003.7
2023-05-28T14:29:02.097Z,1003.8
2023-05-28T14:33:59.275Z,1003.8
2023-05-28T14:38:59.124Z,1003.8
2023-05-28T14:43:59.119Z,1003.6
2023-05-28T14:48:58.935Z,1003.6
2023-05-28T14:53:58.213Z,1003.6
2023-05-28T14:58:57.674Z,1003.6
2023-05-28T15:00:49.518Z,1003.5
2023-05-28T15:05:30.101Z,1003.6
2023-05-28T15:10:27.027Z,1003.5
2023-05-28T15:15:26.879Z,1003.4
2023-05-28T15:20:29.869Z,1003.2
2023-05-28T15:25:25.060Z,1003.3
2023-05-28T15:30:24.534Z,1003.3
2023-05-28T15:35:24.984Z,1003.2
2023-05-28T15:40:11.817Z,1003.2
2023-05-28T15:45:11.582Z,1003.2
2023-05-28T15:50:11.921Z,1003.2
2023-05-28T15:55:11.289Z,1003.2
2023-05-28T17:25:00.124Z,1003
2023-05-28T18:04:01.975Z,1003.2
2023-05-28T18:09:01.538Z,1003.2
2023-05-28T18:14:01.564Z,1003.2
2023-05-28T18:19:03.700Z,1003.3
2023-05-28T18:23:59.140Z,1003.3
2023-05-28T18:28:59.078Z,1003.3
2023-05-28T18:33:58.402Z,1003.3
2023-05-28T18:38:58.355Z,1003.4
2023-05-28T18:43:55.797Z,1003.4
2023-05-28T18:48:55.462Z,1003.4
2023-05-28T18:53:54.913Z,1003.4
2023-05-28T18:58:54.266Z,1003.4
2023-05-28T19:00:40.752Z,1003.5
2023-05-28T21:14:12.647Z,1004.6
2023-05-28T21:19:12.609Z,1004.2
2023-05-28T21:29:11.892Z,1004.3
2023-05-28T21:34:10.898Z,1004.3
2023-05-28T21:39:10.792Z,1004.3
2023-05-28T21:44:09.811Z,1004.7
2023-05-28T21:49:09.807Z,1004.7
2023-05-28T21:54:07.035Z,1004.7
2023-05-28T21:59:06.392Z,1004.7
2023-05-28T22:04:07.068Z,1004.7
2023-05-28T22:09:06.129Z,1004.6
2023-05-28T22:14:05.401Z,1004.5
2023-05-28T22:19:04.633Z,1004.4
2023-05-28T22:24:04.807Z,1004.4
2023-05-28T22:29:18.458Z,1004.4
2023-05-28T22:34:10.725Z,1004.5
2023-05-28T22:39:01.773Z,1004.5
2023-05-28T22:44:10.401Z,1004.5
2023-05-28T22:49:01.304Z,1004.5
2023-05-28T22:54:10.853Z,1004.5
2023-05-28T22:58:58.264Z,1004.6
2023-05-28T23:03:58.441Z,1004.7
2023-05-28T23:08:57.778Z,1004.7
2023-05-28T23:13:58.819Z,1004.7
2023-05-28T23:19:05.443Z,1004.6
2023-05-28T23:23:55.329Z,1004.7
2023-05-28T23:28:54.828Z,1004.7
2023-05-28T23:38:51.985Z,1004.8
2023-05-28T23:43:51.987Z,1004.8
2023-05-28T23:48:51.863Z,1004.8
2023-05-28T23:53:51.423Z,1004.7
2023-05-28T23:58:55.752Z,1004.7
